sensor_id;sensor_type;location;lat;lon;timestamp;pressure;altitude;pressure_sealevel;temperature;humidity
78890;BME280;68279;48.964;14.502;2023-07-02T00:00:27;96211.56;;;17.01;74.11
78890;BME280;68279;48.964;14.502;2023-07-02T00:02:53;96211.41;;;17.09;73.38
78890;BME280;68279;48.964;14.502;2023-07-02T00:05:19;96209.50;;;17.10;73.60
78890;BME280;68279;48.964;14.502;2023-07-02T00:07:44;96201.50;;;17.13;73.30
78890;BME280;68279;48.964;14.502;2023-07-02T00:10:10;96203.09;;;17.14;73.37
78890;BME280;68279;48.964;14.502;2023-07-02T00:12:36;96209.19;;;16.99;74.07
78890;BME280;68279;48.964;14.502;2023-07-02T00:15:02;96207.72;;;17.02;73.82
78890;BME280;68279;48.964;14.502;2023-07-02T00:17:28;96207.50;;;17.07;73.66
78890;BME280;68279;48.964;14.502;2023-07-02T00:19:53;96206.16;;;17.01;74.03
78890;BME280;68279;48.964;14.502;2023-07-02T00:22:20;96205.28;;;16.96;74.28
78890;BME280;68279;48.964;14.502;2023-07-02T00:24:46;96207.84;;;16.93;74.28
78890;BME280;68279;48.964;14.502;2023-07-02T00:27:11;96209.69;;;16.89;75.07
78890;BME280;68279;48.964;14.502;2023-07-02T00:29:37;96201.69;;;16.80;75.12
78890;BME280;68279;48.964;14.502;2023-07-02T00:32:02;96202.72;;;16.76;75.50
78890;BME280;68279;48.964;14.502;2023-07-02T00:34:28;96205.84;;;16.78;75.49
78890;BME280;68279;48.964;14.502;2023-07-02T00:36:54;96206.97;;;16.77;75.70
78890;BME280;68279;48.964;14.502;2023-07-02T00:39:19;96208.09;;;16.88;75.19
78890;BME280;68279;48.964;14.502;2023-07-02T00:41:45;96207.75;;;16.89;75.44
78890;BME280;68279;48.964;14.502;2023-07-02T00:44:12;96210.69;;;16.84;76.19
78890;BME280;68279;48.964;14.502;2023-07-02T00:46:38;96211.72;;;16.80;76.32
78890;BME280;68279;48.964;14.502;2023-07-02T00:49:04;96210.72;;;16.72;76.78
78890;BME280;68279;48.964;14.502;2023-07-02T00:51:30;96205.97;;;16.81;76.04
78890;BME280;68279;48.964;14.502;2023-07-02T00:53:57;96209.81;;;16.80;76.47
78890;BME280;68279;48.964;14.502;2023-07-02T00:56:25;96210.94;;;16.79;76.66
78890;BME280;68279;48.964;14.502;2023-07-02T00:58:53;96208.31;;;16.83;76.11
78890;BME280;68279;48.964;14.502;2023-07-02T01:01:24;96203.16;;;16.90;75.76
78890;BME280;68279;48.964;14.502;2023-07-02T01:03:52;96205.72;;;16.86;76.28
78890;BME280;68279;48.964;14.502;2023-07-02T01:06:23;96210.69;;;16.84;76.61
78890;BME280;68279;48.964;14.502;2023-07-02T01:09:00;96208.69;;;16.81;76.72
78890;BME280;68279;48.964;14.502;2023-07-02T01:11:31;96215.28;;;16.84;76.79
78890;BME280;68279;48.964;14.502;2023-07-02T01:14:04;96207.09;;;16.80;76.61
78890;BME280;68279;48.964;14.502;2023-07-02T01:16:31;96205.63;;;16.83;76.71
78890;BME280;68279;48.964;14.502;2023-07-02T01:18:59;96206.84;;;16.85;76.31
78890;BME280;68279;48.964;14.502;2023-07-02T01:21:30;96205.06;;;16.89;76.28
78890;BME280;68279;48.964;14.502;2023-07-02T01:23:58;96209.56;;;16.97;75.86
78890;BME280;68279;48.964;14.502;2023-07-02T01:26:28;96211.34;;;17.06;75.15
78890;BME280;68279;48.964;14.502;2023-07-02T01:28:54;96205.78;;;17.14;74.96
78890;BME280;68279;48.964;14.502;2023-07-02T01:31:20;96204.75;;;17.19;73.88
78890;BME280;68279;48.964;14.502;2023-07-02T01:33:51;96202.13;;;17.22;73.89
78890;BME280;68279;48.964;14.502;2023-07-02T01:36:16;96208.75;;;17.37;72.79
78890;BME280;68279;48.964;14.502;2023-07-02T01:38:42;96206.81;;;17.38;72.96
78890;BME280;68279;48.964;14.502;2023-07-02T01:41:08;96198.03;;;17.41;72.53
78890;BME280;68279;48.964;14.502;2023-07-02T01:43:33;96201.84;;;17.40;72.79
78890;BME280;68279;48.964;14.502;2023-07-02T01:45:59;96205.09;;;17.45;72.27
78890;BME280;68279;48.964;14.502;2023-07-02T01:48:26;96208.00;;;17.52;71.25
78890;BME280;68279;48.964;14.502;2023-07-02T01:50:52;96209.97;;;17.68;70.71
78890;BME280;68279;48.964;14.502;2023-07-02T01:53:18;96217.81;;;17.85;69.47
78890;BME280;68279;48.964;14.502;2023-07-02T01:55:43;96213.50;;;17.84;69.58
78890;BME280;68279;48.964;14.502;2023-07-02T01:58:09;96216.56;;;17.82;69.75
78890;BME280;68279;48.964;14.502;2023-07-02T02:00:34;96225.75;;;17.94;68.80
78890;BME280;68279;48.964;14.502;2023-07-02T02:03:00;96228.63;;;18.01;68.59
78890;BME280;68279;48.964;14.502;2023-07-02T02:05:26;96231.34;;;18.01;68.80
78890;BME280;68279;48.964;14.502;2023-07-02T02:07:51;96227.59;;;18.05;67.98
78890;BME280;68279;48.964;14.502;2023-07-02T02:10:17;96247.25;;;18.02;68.42
78890;BME280;68279;48.964;14.502;2023-07-02T02:12:42;96242.09;;;17.97;69.58
78890;BME280;68279;48.964;14.502;2023-07-02T02:15:08;96244.94;;;17.89;69.46
78890;BME280;68279;48.964;14.502;2023-07-02T02:17:34;96241.59;;;17.79;70.54
78890;BME280;68279;48.964;14.502;2023-07-02T02:20:00;96243.09;;;17.77;70.74
78890;BME280;68279;48.964;14.502;2023-07-02T02:22:26;96246.03;;;17.72;71.96
78890;BME280;68279;48.964;14.502;2023-07-02T02:24:52;96237.50;;;17.70;70.32
78890;BME280;68279;48.964;14.502;2023-07-02T02:27:17;96245.69;;;17.73;69.90
78890;BME280;68279;48.964;14.502;2023-07-02T02:29:42;96250.53;;;17.96;68.51
78890;BME280;68279;48.964;14.502;2023-07-02T02:32:08;96244.69;;;18.09;68.23
78890;BME280;68279;48.964;14.502;2023-07-02T02:34:34;96248.91;;;18.07;67.73
78890;BME280;68279;48.964;14.502;2023-07-02T02:36:59;96244.38;;;18.11;67.86
78890;BME280;68279;48.964;14.502;2023-07-02T02:39:25;96248.13;;;18.06;67.96
78890;BME280;68279;48.964;14.502;2023-07-02T02:41:51;96245.69;;;18.17;67.32
78890;BME280;68279;48.964;14.502;2023-07-02T02:44:17;96249.28;;;18.21;67.43
78890;BME280;68279;48.964;14.502;2023-07-02T02:46:42;96247.16;;;18.15;67.41
78890;BME280;68279;48.964;14.502;2023-07-02T02:49:08;96248.28;;;17.98;68.70
78890;BME280;68279;48.964;14.502;2023-07-02T02:51:34;96246.50;;;17.90;69.55
78890;BME280;68279;48.964;14.502;2023-07-02T02:53:59;96247.94;;;17.71;70.36
78890;BME280;68279;48.964;14.502;2023-07-02T02:56:25;96242.09;;;17.69;70.71
78890;BME280;68279;48.964;14.502;2023-07-02T02:58:50;96244.66;;;17.66;71.29
78890;BME280;68279;48.964;14.502;2023-07-02T03:01:16;96250.16;;;17.81;70.66
78890;BME280;68279;48.964;14.502;2023-07-02T03:03:42;96251.66;;;17.79;70.88
78890;BME280;68279;48.964;14.502;2023-07-02T03:06:14;96257.06;;;17.79;70.71
78890;BME280;68279;48.964;14.502;2023-07-02T03:08:40;96262.19;;;17.84;71.04
78890;BME280;68279;48.964;14.502;2023-07-02T03:11:06;96261.56;;;17.75;71.13
78890;BME280;68279;48.964;14.502;2023-07-02T03:13:31;96260.91;;;17.66;71.97
78890;BME280;68279;48.964;14.502;2023-07-02T03:15:57;96266.78;;;17.68;71.85
78890;BME280;68279;48.964;14.502;2023-07-02T03:18:22;96268.81;;;17.71;72.37
78890;BME280;68279;48.964;14.502;2023-07-02T03:20:48;96272.28;;;17.71;72.42
78890;BME280;68279;48.964;14.502;2023-07-02T03:23:14;96263.72;;;17.69;72.27
78890;BME280;68279;48.964;14.502;2023-07-02T03:25:39;96264.38;;;17.66;73.06
78890;BME280;68279;48.964;14.502;2023-07-02T03:28:05;96274.66;;;17.73;72.37
78890;BME280;68279;48.964;14.502;2023-07-02T03:30:30;96285.81;;;17.71;72.39
78890;BME280;68279;48.964;14.502;2023-07-02T03:32:57;96284.81;;;17.76;72.42
78890;BME280;68279;48.964;14.502;2023-07-02T03:35:23;96291.00;;;17.76;72.50
78890;BME280;68279;48.964;14.502;2023-07-02T03:37:48;96282.09;;;17.76;72.67
78890;BME280;68279;48.964;14.502;2023-07-02T03:40:14;96289.06;;;17.77;72.89
78890;BME280;68279;48.964;14.502;2023-07-02T03:42:39;96292.91;;;17.76;72.82
78890;BME280;68279;48.964;14.502;2023-07-02T03:45:05;96291.56;;;17.70;73.48
78890;BME280;68279;48.964;14.502;2023-07-02T03:47:31;96295.72;;;17.79;72.48
78890;BME280;68279;48.964;14.502;2023-07-02T03:49:57;96302.34;;;17.82;72.50
78890;BME280;68279;48.964;14.502;2023-07-02T03:52:22;96300.63;;;17.90;72.36
78890;BME280;68279;48.964;14.502;2023-07-02T03:54:48;96304.53;;;17.92;71.96
78890;BME280;68279;48.964;14.502;2023-07-02T03:57:13;96307.25;;;17.92;72.19
78890;BME280;68279;48.964;14.502;2023-07-02T03:59:39;96313.44;;;17.93;71.92
78890;BME280;68279;48.964;14.502;2023-07-02T04:02:05;96316.69;;;17.98;71.74
78890;BME280;68279;48.964;14.502;2023-07-02T04:04:31;96307.44;;;17.99;72.00
78890;BME280;68279;48.964;14.502;2023-07-02T04:06:56;96312.84;;;17.99;71.80
78890;BME280;68279;48.964;14.502;2023-07-02T04:09:22;96310.84;;;17.96;72.01
78890;BME280;68279;48.964;14.502;2023-07-02T04:11:48;96319.41;;;17.98;71.72
78890;BME280;68279;48.964;14.502;2023-07-02T04:14:13;96321.09;;;18.03;71.72
78890;BME280;68279;48.964;14.502;2023-07-02T04:16:39;96331.91;;;18.03;71.63
78890;BME280;68279;48.964;14.502;2023-07-02T04:19:05;96322.53;;;18.00;72.13
78890;BME280;68279;48.964;14.502;2023-07-02T04:21:30;96319.50;;;18.02;71.91
78890;BME280;68279;48.964;14.502;2023-07-02T04:23:56;96326.16;;;18.04;71.53
78890;BME280;68279;48.964;14.502;2023-07-02T04:26:21;96325.59;;;17.99;72.00
78890;BME280;68279;48.964;14.502;2023-07-02T04:28:47;96329.34;;;17.94;72.43
78890;BME280;68279;48.964;14.502;2023-07-02T04:31:13;96331.72;;;17.96;72.35
78890;BME280;68279;48.964;14.502;2023-07-02T04:33:39;96342.19;;;17.97;72.61
78890;BME280;68279;48.964;14.502;2023-07-02T04:36:06;96340.28;;;17.98;72.85
78890;BME280;68279;48.964;14.502;2023-07-02T04:38:31;96353.56;;;18.03;72.34
78890;BME280;68279;48.964;14.502;2023-07-02T04:40:57;96352.50;;;18.07;72.15
78890;BME280;68279;48.964;14.502;2023-07-02T04:43:32;96346.41;;;18.10;72.42
78890;BME280;68279;48.964;14.502;2023-07-02T04:45:58;96354.84;;;18.21;72.32
78890;BME280;68279;48.964;14.502;2023-07-02T04:48:24;96357.19;;;18.23;72.14
78890;BME280;68279;48.964;14.502;2023-07-02T04:50:49;96359.16;;;18.38;72.39
78890;BME280;68279;48.964;14.502;2023-07-02T04:53:15;96362.72;;;18.42;72.27
78890;BME280;68279;48.964;14.502;2023-07-02T04:55:41;96362.72;;;18.42;71.63
78890;BME280;68279;48.964;14.502;2023-07-02T04:58:07;96355.75;;;18.41;72.12
78890;BME280;68279;48.964;14.502;2023-07-02T05:00:33;96353.81;;;18.42;72.25
78890;BME280;68279;48.964;14.502;2023-07-02T05:02:58;96356.72;;;18.49;72.18
78890;BME280;68279;48.964;14.502;2023-07-02T05:05:24;96361.69;;;18.47;73.15
78890;BME280;68279;48.964;14.502;2023-07-02T05:07:49;96358.81;;;18.11;73.95
78890;BME280;68279;48.964;14.502;2023-07-02T05:10:15;96365.09;;;17.88;75.17
78890;BME280;68279;48.964;14.502;2023-07-02T05:12:41;96367.22;;;17.94;75.81
78890;BME280;68279;48.964;14.502;2023-07-02T05:15:07;96374.31;;;18.27;73.76
78890;BME280;68279;48.964;14.502;2023-07-02T05:17:32;96373.84;;;18.53;73.49
78890;BME280;68279;48.964;14.502;2023-07-02T05:20:01;96362.88;;;18.77;73.36
78890;BME280;68279;48.964;14.502;2023-07-02T05:22:27;96361.44;;;19.31;70.20
78890;BME280;68279;48.964;14.502;2023-07-02T05:24:52;96359.31;;;19.40;70.24
78890;BME280;68279;48.964;14.502;2023-07-02T05:27:17;96363.28;;;19.77;69.55
78890;BME280;68279;48.964;14.502;2023-07-02T05:29:43;96357.28;;;19.88;69.38
78890;BME280;68279;48.964;14.502;2023-07-02T05:32:09;96352.22;;;19.86;67.85
78890;BME280;68279;48.964;14.502;2023-07-02T05:34:35;96361.47;;;19.66;68.95
78890;BME280;68279;48.964;14.502;2023-07-02T05:37:00;96361.00;;;19.44;69.33
78890;BME280;68279;48.964;14.502;2023-07-02T05:39:26;96363.38;;;19.14;69.50
78890;BME280;68279;48.964;14.502;2023-07-02T05:41:51;96374.06;;;19.23;70.37
78890;BME280;68279;48.964;14.502;2023-07-02T05:44:17;96371.19;;;19.00;70.58
78890;BME280;68279;48.964;14.502;2023-07-02T05:46:43;96380.38;;;19.11;72.33
78890;BME280;68279;48.964;14.502;2023-07-02T05:49:08;96384.53;;;19.24;71.60
78890;BME280;68279;48.964;14.502;2023-07-02T05:51:34;96387.66;;;19.42;70.27
78890;BME280;68279;48.964;14.502;2023-07-02T05:54:00;96383.50;;;19.29;70.75
78890;BME280;68279;48.964;14.502;2023-07-02T05:56:25;96392.78;;;19.28;71.01
78890;BME280;68279;48.964;14.502;2023-07-02T05:58:51;96383.72;;;19.56;70.24
78890;BME280;68279;48.964;14.502;2023-07-02T06:01:16;96375.16;;;19.53;69.11
78890;BME280;68279;48.964;14.502;2023-07-02T06:03:42;96376.38;;;19.56;67.67
78890;BME280;68279;48.964;14.502;2023-07-02T06:06:09;96375.59;;;19.40;68.00
78890;BME280;68279;48.964;14.502;2023-07-02T06:08:34;96370.00;;;19.33;67.54
78890;BME280;68279;48.964;14.502;2023-07-02T06:11:00;96369.50;;;19.27;66.08
78890;BME280;68279;48.964;14.502;2023-07-02T06:13:25;96364.69;;;19.20;68.20
78890;BME280;68279;48.964;14.502;2023-07-02T06:15:51;96380.09;;;19.16;69.10
78890;BME280;68279;48.964;14.502;2023-07-02T06:18:17;96377.91;;;19.22;67.58
78890;BME280;68279;48.964;14.502;2023-07-02T06:20:43;96378.78;;;19.26;65.73
78890;BME280;68279;48.964;14.502;2023-07-02T06:23:08;96385.06;;;19.30;67.31
78890;BME280;68279;48.964;14.502;2023-07-02T06:25:34;96379.34;;;19.51;65.98
78890;BME280;68279;48.964;14.502;2023-07-02T06:27:59;96377.63;;;19.78;64.61
78890;BME280;68279;48.964;14.502;2023-07-02T06:30:25;96381.25;;;19.66;65.04
78890;BME280;68279;48.964;14.502;2023-07-02T06:32:52;96382.03;;;19.67;65.18
78890;BME280;68279;48.964;14.502;2023-07-02T06:35:18;96371.72;;;19.92;64.49
78890;BME280;68279;48.964;14.502;2023-07-02T06:37:44;96381.50;;;19.96;61.90
78890;BME280;68279;48.964;14.502;2023-07-02T06:40:10;96381.41;;;19.73;60.12
78890;BME280;68279;48.964;14.502;2023-07-02T06:42:36;96382.59;;;19.57;60.16
78890;BME280;68279;48.964;14.502;2023-07-02T06:45:02;96380.56;;;19.53;60.98
78890;BME280;68279;48.964;14.502;2023-07-02T06:47:28;96377.06;;;19.53;61.05
78890;BME280;68279;48.964;14.502;2023-07-02T06:49:53;96391.69;;;19.33;61.28
78890;BME280;68279;48.964;14.502;2023-07-02T06:52:19;96390.31;;;19.23;63.18
78890;BME280;68279;48.964;14.502;2023-07-02T06:54:45;96387.59;;;19.23;61.63
78890;BME280;68279;48.964;14.502;2023-07-02T06:57:12;96377.34;;;19.48;59.34
78890;BME280;68279;48.964;14.502;2023-07-02T06:59:38;96369.44;;;20.13;60.18
78890;BME280;68279;48.964;14.502;2023-07-02T07:02:04;96382.59;;;20.50;58.71
78890;BME280;68279;48.964;14.502;2023-07-02T07:04:29;96385.41;;;20.57;56.48
78890;BME280;68279;48.964;14.502;2023-07-02T07:06:55;96387.34;;;20.56;55.60
78890;BME280;68279;48.964;14.502;2023-07-02T07:09:21;96382.13;;;21.13;55.07
78890;BME280;68279;48.964;14.502;2023-07-02T07:11:47;96383.81;;;21.21;52.95
78890;BME280;68279;48.964;14.502;2023-07-02T07:14:13;96401.41;;;21.27;54.30
78890;BME280;68279;48.964;14.502;2023-07-02T07:16:38;96394.19;;;20.92;55.73
78890;BME280;68279;48.964;14.502;2023-07-02T07:19:04;96394.78;;;20.40;57.92
78890;BME280;68279;48.964;14.502;2023-07-02T07:21:31;96398.09;;;20.49;57.55
78890;BME280;68279;48.964;14.502;2023-07-02T07:23:56;96400.50;;;20.35;56.44
78890;BME280;68279;48.964;14.502;2023-07-02T07:26:22;96397.50;;;20.40;56.36
78890;BME280;68279;48.964;14.502;2023-07-02T07:28:48;96399.63;;;20.31;56.88
78890;BME280;68279;48.964;14.502;2023-07-02T07:31:15;96398.13;;;20.72;55.36
78890;BME280;68279;48.964;14.502;2023-07-02T07:33:40;96402.66;;;20.26;56.20
78890;BME280;68279;48.964;14.502;2023-07-02T07:36:06;96401.31;;;20.16;55.75
78890;BME280;68279;48.964;14.502;2023-07-02T07:38:32;96401.31;;;19.97;57.39
78890;BME280;68279;48.964;14.502;2023-07-02T07:40:57;96413.22;;;19.92;56.24
78890;BME280;68279;48.964;14.502;2023-07-02T07:43:24;96413.44;;;20.03;56.72
78890;BME280;68279;48.964;14.502;2023-07-02T07:45:49;96406.66;;;20.13;57.56
78890;BME280;68279;48.964;14.502;2023-07-02T07:48:15;96412.75;;;20.25;56.54
78890;BME280;68279;48.964;14.502;2023-07-02T07:50:41;96418.88;;;20.61;56.13
78890;BME280;68279;48.964;14.502;2023-07-02T07:53:06;96403.97;;;20.74;55.15
78890;BME280;68279;48.964;14.502;2023-07-02T07:55:32;96408.88;;;20.88;55.38
78890;BME280;68279;48.964;14.502;2023-07-02T07:57:58;96426.72;;;20.85;51.63
78890;BME280;68279;48.964;14.502;2023-07-02T08:00:23;96403.97;;;21.20;50.78
78890;BME280;68279;48.964;14.502;2023-07-02T08:02:50;96410.53;;;21.38;50.51
78890;BME280;68279;48.964;14.502;2023-07-02T08:05:18;96419.16;;;20.98;49.07
78890;BME280;68279;48.964;14.502;2023-07-02T08:07:43;96411.47;;;21.49;49.23
78890;BME280;68279;48.964;14.502;2023-07-02T08:10:09;96413.59;;;21.90;48.09
78890;BME280;68279;48.964;14.502;2023-07-02T08:12:35;96414.53;;;22.01;47.01
78890;BME280;68279;48.964;14.502;2023-07-02T08:15:01;96426.88;;;21.65;47.26
78890;BME280;68279;48.964;14.502;2023-07-02T08:17:27;96416.03;;;21.42;48.51
78890;BME280;68279;48.964;14.502;2023-07-02T08:19:52;96429.00;;;21.06;47.87
78890;BME280;68279;48.964;14.502;2023-07-02T08:22:18;96428.06;;;20.76;48.35
78890;BME280;68279;48.964;14.502;2023-07-02T08:24:44;96432.56;;;20.45;49.58
78890;BME280;68279;48.964;14.502;2023-07-02T08:27:09;96430.25;;;20.28;50.48
78890;BME280;68279;48.964;14.502;2023-07-02T08:29:39;96432.97;;;20.28;50.02
78890;BME280;68279;48.964;14.502;2023-07-02T08:32:04;96433.53;;;20.18;50.75
78890;BME280;68279;48.964;14.502;2023-07-02T08:34:30;96437.66;;;20.12;51.98
78890;BME280;68279;48.964;14.502;2023-07-02T08:36:55;96438.13;;;20.33;50.91
78890;BME280;68279;48.964;14.502;2023-07-02T08:39:21;96433.00;;;20.31;49.97
78890;BME280;68279;48.964;14.502;2023-07-02T08:41:47;96438.97;;;20.37;49.48
78890;BME280;68279;48.964;14.502;2023-07-02T08:44:14;96445.72;;;20.43;50.01
78890;BME280;68279;48.964;14.502;2023-07-02T08:46:41;96447.53;;;20.39;49.51
78890;BME280;68279;48.964;14.502;2023-07-02T08:49:08;96449.25;;;20.28;49.34
78890;BME280;68279;48.964;14.502;2023-07-02T08:51:34;96450.53;;;20.15;49.52
78890;BME280;68279;48.964;14.502;2023-07-02T08:54:03;96445.75;;;20.27;49.57
78890;BME280;68279;48.964;14.502;2023-07-02T08:56:30;96446.84;;;20.61;49.84
78890;BME280;68279;48.964;14.502;2023-07-02T08:58:56;96451.50;;;21.03;51.01
78890;BME280;68279;48.964;14.502;2023-07-02T09:01:21;96454.81;;;21.16;47.93
78890;BME280;68279;48.964;14.502;2023-07-02T09:03:48;96459.09;;;21.17;48.77
78890;BME280;68279;48.964;14.502;2023-07-02T09:08:42;96467.84;;;21.49;48.28
78890;BME280;68279;48.964;14.502;2023-07-02T09:11:15;96458.53;;;21.27;49.08
78890;BME280;68279;48.964;14.502;2023-07-02T09:13:52;96467.38;;;21.24;49.02
78890;BME280;68279;48.964;14.502;2023-07-02T09:16:33;96467.81;;;21.26;51.03
78890;BME280;68279;48.964;14.502;2023-07-02T09:19:10;96469.84;;;21.10;49.64
78890;BME280;68279;48.964;14.502;2023-07-02T09:21:46;96459.63;;;20.80;50.62
78890;BME280;68279;48.964;14.502;2023-07-02T09:26:46;96465.84;;;20.81;51.70
78890;BME280;68279;48.964;14.502;2023-07-02T09:29:12;96470.03;;;20.98;52.38
78890;BME280;68279;48.964;14.502;2023-07-02T09:31:45;96467.41;;;20.82;51.07
78890;BME280;68279;48.964;14.502;2023-07-02T09:34:12;96468.78;;;20.72;51.44
78890;BME280;68279;48.964;14.502;2023-07-02T09:36:38;96466.59;;;21.01;51.87
78890;BME280;68279;48.964;14.502;2023-07-02T09:39:13;96475.66;;;21.08;53.20
78890;BME280;68279;48.964;14.502;2023-07-02T09:41:42;96480.94;;;21.20;51.07
78890;BME280;68279;48.964;14.502;2023-07-02T09:44:09;96484.69;;;21.12;51.53
78890;BME280;68279;48.964;14.502;2023-07-02T09:46:42;96482.47;;;20.99;52.65
78890;BME280;68279;48.964;14.502;2023-07-02T09:49:14;96480.34;;;20.88;52.80
78890;BME280;68279;48.964;14.502;2023-07-02T09:51:41;96481.72;;;21.21;50.57
78890;BME280;68279;48.964;14.502;2023-07-02T09:54:07;96471.78;;;20.86;51.25
78890;BME280;68279;48.964;14.502;2023-07-02T09:56:33;96486.41;;;20.59;53.86
78890;BME280;68279;48.964;14.502;2023-07-02T09:58:59;96484.03;;;21.00;52.81
78890;BME280;68279;48.964;14.502;2023-07-02T10:01:24;96490.25;;;21.00;51.96
78890;BME280;68279;48.964;14.502;2023-07-02T10:03:50;96489.69;;;20.68;53.16
78890;BME280;68279;48.964;14.502;2023-07-02T10:06:15;96490.81;;;20.48;53.88
78890;BME280;68279;48.964;14.502;2023-07-02T10:08:52;96496.75;;;20.18;54.89
78890;BME280;68279;48.964;14.502;2023-07-02T10:11:18;96489.13;;;20.24;54.38
78890;BME280;68279;48.964;14.502;2023-07-02T10:13:43;96495.47;;;20.12;57.48
78890;BME280;68279;48.964;14.502;2023-07-02T10:16:09;96502.19;;;19.83;55.75
78890;BME280;68279;48.964;14.502;2023-07-02T10:18:35;96505.00;;;19.71;56.27
78890;BME280;68279;48.964;14.502;2023-07-02T10:21:12;96498.31;;;19.84;55.34
78890;BME280;68279;48.964;14.502;2023-07-02T10:23:38;96502.19;;;20.18;54.08
78890;BME280;68279;48.964;14.502;2023-07-02T10:26:15;96505.81;;;20.06;54.72
78890;BME280;68279;48.964;14.502;2023-07-02T10:28:41;96517.69;;;20.18;55.99
78890;BME280;68279;48.964;14.502;2023-07-02T10:31:20;96510.59;;;20.13;55.21
78890;BME280;68279;48.964;14.502;2023-07-02T10:33:47;96528.94;;;20.00;54.33
78890;BME280;68279;48.964;14.502;2023-07-02T10:36:20;96530.09;;;19.99;54.91
78890;BME280;68279;48.964;14.502;2023-07-02T10:38:47;96521.63;;;20.20;54.82
78890;BME280;68279;48.964;14.502;2023-07-02T10:41:26;96513.47;;;20.75;54.07
78890;BME280;68279;48.964;14.502;2023-07-02T10:43:52;96513.13;;;20.76;53.44
78890;BME280;68279;48.964;14.502;2023-07-02T10:46:21;96507.97;;;21.33;52.41
78890;BME280;68279;48.964;14.502;2023-07-02T10:48:56;96499.88;;;22.09;51.69
78890;BME280;68279;48.964;14.502;2023-07-02T10:51:23;96505.56;;;22.56;50.70
78890;BME280;68279;48.964;14.502;2023-07-02T10:54:00;96514.50;;;21.28;51.93
78890;BME280;68279;48.964;14.502;2023-07-02T10:56:27;96520.47;;;20.76;53.58
78890;BME280;68279;48.964;14.502;2023-07-02T10:58:53;96516.03;;;20.48;53.92
78890;BME280;68279;48.964;14.502;2023-07-02T11:03:56;96512.09;;;22.22;50.85
78890;BME280;68279;48.964;14.502;2023-07-02T11:06:21;96517.16;;;22.20;51.91
78890;BME280;68279;48.964;14.502;2023-07-02T11:08:47;96518.13;;;21.59;51.01
78890;BME280;68279;48.964;14.502;2023-07-02T11:11:12;96511.53;;;21.37;52.92
78890;BME280;68279;48.964;14.502;2023-07-02T11:13:48;96516.16;;;21.56;52.12
78890;BME280;68279;48.964;14.502;2023-07-02T11:16:21;96499.94;;;21.89;50.52
78890;BME280;68279;48.964;14.502;2023-07-02T11:18:50;96489.09;;;22.46;51.61
78890;BME280;68279;48.964;14.502;2023-07-02T11:21:16;96491.06;;;22.49;52.17
78890;BME280;68279;48.964;14.502;2023-07-02T11:23:41;96504.56;;;22.38;49.94
78890;BME280;68279;48.964;14.502;2023-07-02T11:26:07;96501.50;;;23.07;48.98
78890;BME280;68279;48.964;14.502;2023-07-02T11:28:33;96502.31;;;23.11;49.24
78890;BME280;68279;48.964;14.502;2023-07-02T11:31:00;96509.91;;;21.32;51.91
78890;BME280;68279;48.964;14.502;2023-07-02T11:33:34;96505.97;;;21.75;50.60
78890;BME280;68279;48.964;14.502;2023-07-02T11:36:00;96510.09;;;21.92;50.51
78890;BME280;68279;48.964;14.502;2023-07-02T11:38:26;96503.69;;;20.51;52.75
78890;BME280;68279;48.964;14.502;2023-07-02T11:40:52;96504.97;;;21.18;52.34
78890;BME280;68279;48.964;14.502;2023-07-02T11:43:17;96504.69;;;21.69;48.96
78890;BME280;68279;48.964;14.502;2023-07-02T11:45:43;96500.28;;;22.41;48.78
78890;BME280;68279;48.964;14.502;2023-07-02T11:48:09;96509.25;;;21.88;47.93
78890;BME280;68279;48.964;14.502;2023-07-02T11:50:34;96495.97;;;22.36;46.68
78890;BME280;68279;48.964;14.502;2023-07-02T11:53:00;96511.31;;;21.95;47.14
78890;BME280;68279;48.964;14.502;2023-07-02T11:55:25;96494.53;;;22.79;46.59
78890;BME280;68279;48.964;14.502;2023-07-02T11:57:51;96517.78;;;22.40;44.83
78890;BME280;68279;48.964;14.502;2023-07-02T12:00:17;96506.25;;;22.20;46.36
78890;BME280;68279;48.964;14.502;2023-07-02T12:02:43;96500.69;;;22.73;46.00
78890;BME280;68279;48.964;14.502;2023-07-02T12:05:08;96505.81;;;23.11;45.48
78890;BME280;68279;48.964;14.502;2023-07-02T12:07:34;96498.97;;;22.91;43.94
78890;BME280;68279;48.964;14.502;2023-07-02T12:10:00;96504.63;;;22.79;47.16
78890;BME280;68279;48.964;14.502;2023-07-02T12:12:26;96504.19;;;22.73;44.71
78890;BME280;68279;48.964;14.502;2023-07-02T12:14:52;96496.50;;;21.92;45.39
78890;BME280;68279;48.964;14.502;2023-07-02T12:17:17;96490.16;;;21.16;47.40
78890;BME280;68279;48.964;14.502;2023-07-02T12:19:43;96487.38;;;21.32;46.40
78890;BME280;68279;48.964;14.502;2023-07-02T12:22:08;96490.00;;;22.57;44.40
78890;BME280;68279;48.964;14.502;2023-07-02T12:24:34;96485.56;;;22.45;44.66
78890;BME280;68279;48.964;14.502;2023-07-02T12:27:00;96502.06;;;23.27;43.97
78890;BME280;68279;48.964;14.502;2023-07-02T12:29:25;96488.28;;;22.45;42.97
78890;BME280;68279;48.964;14.502;2023-07-02T12:31:51;96497.09;;;21.56;46.65
78890;BME280;68279;48.964;14.502;2023-07-02T12:34:16;96493.13;;;22.59;45.79
78890;BME280;68279;48.964;14.502;2023-07-02T12:36:42;96495.09;;;22.28;45.03
78890;BME280;68279;48.964;14.502;2023-07-02T12:39:08;96495.44;;;21.74;45.08
78890;BME280;68279;48.964;14.502;2023-07-02T12:41:34;96496.13;;;21.67;44.58
78890;BME280;68279;48.964;14.502;2023-07-02T12:44:00;96490.69;;;22.50;44.05
78890;BME280;68279;48.964;14.502;2023-07-02T12:46:25;96477.38;;;23.12;42.48
78890;BME280;68279;48.964;14.502;2023-07-02T12:48:51;96492.28;;;23.66;42.54
78890;BME280;68279;48.964;14.502;2023-07-02T12:51:16;96486.88;;;23.29;42.15
78890;BME280;68279;48.964;14.502;2023-07-02T12:53:42;96475.59;;;22.90;41.27